sensor_id;sensor_type;location;lat;lon;timestamp;temperature;humidity
71082;SHT31;58740;50.672;18.690;2022-07-10T00:02:15;16.84;64.61
71082;SHT31;58740;50.672;18.690;2022-07-10T00:04:43;16.85;64.67
71082;SHT31;58740;50.672;18.690;2022-07-10T00:07:11;16.85;64.78
71082;SHT31;58740;50.672;18.690;2022-07-10T00:09:38;16.86;64.79
71082;SHT31;58740;50.672;18.690;2022-07-10T00:12:06;16.85;64.92
71082;SHT31;58740;50.672;18.690;2022-07-10T00:14:34;16.85;65.00
71082;SHT31;58740;50.672;18.690;2022-07-10T00:17:01;16.86;64.97
71082;SHT31;58740;50.672;18.690;2022-07-10T00:19:29;16.84;65.14
71082;SHT31;58740;50.672;18.690;2022-07-10T00:21:57;16.84;65.10
71082;SHT31;58740;50.672;18.690;2022-07-10T00:24:24;16.85;65.11
71082;SHT31;58740;50.672;18.690;2022-07-10T00:26:52;16.84;65.18
71082;SHT31;58740;50.672;18.690;2022-07-10T00:29:19;16.84;65.12
71082;SHT31;58740;50.672;18.690;2022-07-10T00:31:47;16.82;65.27
71082;SHT31;58740;50.672;18.690;2022-07-10T00:34:15;16.82;65.35
71082;SHT31;58740;50.672;18.690;2022-07-10T00:36:42;16.82;65.42
71082;SHT31;58740;50.672;18.690;2022-07-10T00:39:10;16.83;65.39
71082;SHT31;58740;50.672;18.690;2022-07-10T00:41:38;16.83;65.53
71082;SHT31;58740;50.672;18.690;2022-07-10T00:44:06;16.83;65.51
71082;SHT31;58740;50.672;18.690;2022-07-10T00:46:34;16.84;65.49
71082;SHT31;58740;50.672;18.690;2022-07-10T00:49:02;16.83;65.57
71082;SHT31;58740;50.672;18.690;2022-07-10T00:51:30;16.82;65.59
71082;SHT31;58740;50.672;18.690;2022-07-10T00:53:58;16.79;65.65
71082;SHT31;58740;50.672;18.690;2022-07-10T00:56:27;16.78;65.70
71082;SHT31;58740;50.672;18.690;2022-07-10T00:58:56;16.75;65.89
71082;SHT31;58740;50.672;18.690;2022-07-10T01:01:24;16.72;65.92
71082;SHT31;58740;50.672;18.690;2022-07-10T01:03:52;16.72;66.05
71082;SHT31;58740;50.672;18.690;2022-07-10T01:06:20;16.73;66.04
71082;SHT31;58740;50.672;18.690;2022-07-10T01:08:47;16.75;66.07
71082;SHT31;58740;50.672;18.690;2022-07-10T01:11:15;16.75;66.12
71082;SHT31;58740;50.672;18.690;2022-07-10T01:13:43;16.77;66.12
71082;SHT31;58740;50.672;18.690;2022-07-10T01:16:11;16.76;66.09
71082;SHT31;58740;50.672;18.690;2022-07-10T01:18:40;16.76;66.06
71082;SHT31;58740;50.672;18.690;2022-07-10T01:21:28;16.72;66.15
71082;SHT31;58740;50.672;18.690;2022-07-10T01:24:07;16.70;66.22
71082;SHT31;58740;50.672;18.690;2022-07-10T01:26:37;16.68;66.25
71082;SHT31;58740;50.672;18.690;2022-07-10T01:29:10;16.67;66.42
71082;SHT31;58740;50.672;18.690;2022-07-10T01:31:38;16.67;66.46
71082;SHT31;58740;50.672;18.690;2022-07-10T01:34:07;16.67;66.49
71082;SHT31;58740;50.672;18.690;2022-07-10T01:36:36;16.66;66.45
71082;SHT31;58740;50.672;18.690;2022-07-10T01:39:05;16.64;66.55
71082;SHT31;58740;50.672;18.690;2022-07-10T01:41:34;16.64;66.56
71082;SHT31;58740;50.672;18.690;2022-07-10T01:44:02;16.61;66.55
71082;SHT31;58740;50.672;18.690;2022-07-10T01:46:30;16.60;66.62
71082;SHT31;58740;50.672;18.690;2022-07-10T01:48:58;16.59;66.80
71082;SHT31;58740;50.672;18.690;2022-07-10T01:51:25;16.59;66.86
71082;SHT31;58740;50.672;18.690;2022-07-10T01:53:53;16.58;66.82
71082;SHT31;58740;50.672;18.690;2022-07-10T01:56:20;16.60;66.83
71082;SHT31;58740;50.672;18.690;2022-07-10T01:58:48;16.59;66.89
71082;SHT31;58740;50.672;18.690;2022-07-10T02:01:16;16.58;66.88
71082;SHT31;58740;50.672;18.690;2022-07-10T02:03:43;16.57;67.00
71082;SHT31;58740;50.672;18.690;2022-07-10T02:06:30;16.57;66.99
71082;SHT31;58740;50.672;18.690;2022-07-10T02:08:57;16.56;66.93
71082;SHT31;58740;50.672;18.690;2022-07-10T02:11:25;16.54;67.00
71082;SHT31;58740;50.672;18.690;2022-07-10T02:13:53;16.50;67.09
71082;SHT31;58740;50.672;18.690;2022-07-10T02:16:20;16.48;67.18
71082;SHT31;58740;50.672;18.690;2022-07-10T02:18:48;16.48;67.18
71082;SHT31;58740;50.672;18.690;2022-07-10T02:21:15;16.49;67.26
71082;SHT31;58740;50.672;18.690;2022-07-10T02:23:44;16.50;67.26
71082;SHT31;58740;50.672;18.690;2022-07-10T02:26:11;16.50;67.29
71082;SHT31;58740;50.672;18.690;2022-07-10T02:28:39;16.47;67.33
71082;SHT31;58740;50.672;18.690;2022-07-10T02:31:07;16.43;67.52
71082;SHT31;58740;50.672;18.690;2022-07-10T02:33:35;16.41;67.62
71082;SHT31;58740;50.672;18.690;2022-07-10T02:36:04;16.39;67.72
71082;SHT31;58740;50.672;18.690;2022-07-10T02:38:32;16.36;67.80
71082;SHT31;58740;50.672;18.690;2022-07-10T02:41:00;16.36;67.79
71082;SHT31;58740;50.672;18.690;2022-07-10T02:43:28;16.38;68.02
71082;SHT31;58740;50.672;18.690;2022-07-10T02:45:55;16.36;67.96
71082;SHT31;58740;50.672;18.690;2022-07-10T02:48:23;16.34;68.03
71082;SHT31;58740;50.672;18.690;2022-07-10T02:50:50;16.33;68.19
71082;SHT31;58740;50.672;18.690;2022-07-10T02:53:18;16.32;68.31
71082;SHT31;58740;50.672;18.690;2022-07-10T02:55:46;16.31;68.40
71082;SHT31;58740;50.672;18.690;2022-07-10T02:58:13;16.27;68.50
71082;SHT31;58740;50.672;18.690;2022-07-10T03:00:42;16.25;68.67
71082;SHT31;58740;50.672;18.690;2022-07-10T03:03:10;16.24;68.84
71082;SHT31;58740;50.672;18.690;2022-07-10T03:05:38;16.24;68.86
71082;SHT31;58740;50.672;18.690;2022-07-10T03:08:06;16.24;69.13
71082;SHT31;58740;50.672;18.690;2022-07-10T03:10:33;16.23;69.63
71082;SHT31;58740;50.672;18.690;2022-07-10T03:13:02;16.22;69.83
71082;SHT31;58740;50.672;18.690;2022-07-10T03:15:30;16.21;70.12
71082;SHT31;58740;50.672;18.690;2022-07-10T03:17:58;16.19;70.50
71082;SHT31;58740;50.672;18.690;2022-07-10T03:20:26;16.17;70.74
71082;SHT31;58740;50.672;18.690;2022-07-10T03:22:54;16.19;70.94
71082;SHT31;58740;50.672;18.690;2022-07-10T03:25:21;16.21;70.95
71082;SHT31;58740;50.672;18.690;2022-07-10T03:27:49;16.20;71.19
71082;SHT31;58740;50.672;18.690;2022-07-10T03:30:17;16.17;71.18
71082;SHT31;58740;50.672;18.690;2022-07-10T03:32:45;16.16;71.34
71082;SHT31;58740;50.672;18.690;2022-07-10T03:35:13;16.15;71.44
71082;SHT31;58740;50.672;18.690;2022-07-10T03:37:40;16.14;71.46
71082;SHT31;58740;50.672;18.690;2022-07-10T03:40:08;16.11;71.50
71082;SHT31;58740;50.672;18.690;2022-07-10T03:42:36;16.13;71.63
71082;SHT31;58740;50.672;18.690;2022-07-10T03:45:04;16.15;71.67
71082;SHT31;58740;50.672;18.690;2022-07-10T03:47:32;16.17;71.57
71082;SHT31;58740;50.672;18.690;2022-07-10T03:50:00;16.18;71.53
71082;SHT31;58740;50.672;18.690;2022-07-10T03:52:28;16.18;71.62
71082;SHT31;58740;50.672;18.690;2022-07-10T03:54:55;16.18;71.69
71082;SHT31;58740;50.672;18.690;2022-07-10T03:57:23;16.18;71.72
71082;SHT31;58740;50.672;18.690;2022-07-10T04:00:09;16.23;71.78
71082;SHT31;58740;50.672;18.690;2022-07-10T04:02:38;16.25;71.94
71082;SHT31;58740;50.672;18.690;2022-07-10T04:05:07;16.25;71.74
71082;SHT31;58740;50.672;18.690;2022-07-10T04:07:36;16.25;71.85
71082;SHT31;58740;50.672;18.690;2022-07-10T04:10:04;16.25;71.80
71082;SHT31;58740;50.672;18.690;2022-07-10T04:12:32;16.22;71.79
71082;SHT31;58740;50.672;18.690;2022-07-10T04:15:00;16.18;71.94
71082;SHT31;58740;50.672;18.690;2022-07-10T04:17:27;16.19;72.03
71082;SHT31;58740;50.672;18.690;2022-07-10T04:19:56;16.24;71.98
71082;SHT31;58740;50.672;18.690;2022-07-10T04:22:24;16.25;71.77
71082;SHT31;58740;50.672;18.690;2022-07-10T04:24:51;16.26;71.83
71082;SHT31;58740;50.672;18.690;2022-07-10T04:27:19;16.28;71.94
71082;SHT31;58740;50.672;18.690;2022-07-10T04:29:48;16.27;71.74
71082;SHT31;58740;50.672;18.690;2022-07-10T04:32:16;16.24;71.73
71082;SHT31;58740;50.672;18.690;2022-07-10T04:34:44;16.22;71.87
71082;SHT31;58740;50.672;18.690;2022-07-10T04:37:11;16.21;71.96
71082;SHT31;58740;50.672;18.690;2022-07-10T04:39:39;16.23;71.88
71082;SHT31;58740;50.672;18.690;2022-07-10T04:42:08;16.24;72.03
71082;SHT31;58740;50.672;18.690;2022-07-10T04:44:36;16.25;72.05
71082;SHT31;58740;50.672;18.690;2022-07-10T04:47:04;16.26;72.10
71082;SHT31;58740;50.672;18.690;2022-07-10T04:49:33;16.27;72.08
71082;SHT31;58740;50.672;18.690;2022-07-10T04:52:01;16.28;72.09
71082;SHT31;58740;50.672;18.690;2022-07-10T04:54:30;16.32;72.22
71082;SHT31;58740;50.672;18.690;2022-07-10T04:56:57;16.37;72.17
71082;SHT31;58740;50.672;18.690;2022-07-10T04:59:25;16.49;72.06
71082;SHT31;58740;50.672;18.690;2022-07-10T05:01:53;16.57;71.90
71082;SHT31;58740;50.672;18.690;2022-07-10T05:04:21;16.61;71.61
71082;SHT31;58740;50.672;18.690;2022-07-10T05:06:48;16.63;71.34
71082;SHT31;58740;50.672;18.690;2022-07-10T05:09:16;16.64;71.21
71082;SHT31;58740;50.672;18.690;2022-07-10T05:11:47;16.64;71.26
71082;SHT31;58740;50.672;18.690;2022-07-10T05:14:15;16.62;70.94
71082;SHT31;58740;50.672;18.690;2022-07-10T05:16:43;16.57;71.01
71082;SHT31;58740;50.672;18.690;2022-07-10T05:19:11;16.55;70.75
71082;SHT31;58740;50.672;18.690;2022-07-10T05:21:39;16.52;70.83
71082;SHT31;58740;50.672;18.690;2022-07-10T05:24:06;16.52;70.74
71082;SHT31;58740;50.672;18.690;2022-07-10T05:26:34;16.52;70.45
71082;SHT31;58740;50.672;18.690;2022-07-10T05:29:03;16.53;70.20
71082;SHT31;58740;50.672;18.690;2022-07-10T05:31:31;16.54;70.04
71082;SHT31;58740;50.672;18.690;2022-07-10T05:33:58;16.55;69.96
71082;SHT31;58740;50.672;18.690;2022-07-10T05:36:26;16.55;69.47
71082;SHT31;58740;50.672;18.690;2022-07-10T05:38:54;16.55;69.47
71082;SHT31;58740;50.672;18.690;2022-07-10T05:41:21;16.65;69.38
71082;SHT31;58740;50.672;18.690;2022-07-10T05:43:49;16.75;69.02
71082;SHT31;58740;50.672;18.690;2022-07-10T05:46:17;16.80;68.93
71082;SHT31;58740;50.672;18.690;2022-07-10T05:48:44;16.82;68.38
71082;SHT31;58740;50.672;18.690;2022-07-10T05:51:12;16.80;67.83
71082;SHT31;58740;50.672;18.690;2022-07-10T05:54:00;16.78;67.53
71082;SHT31;58740;50.672;18.690;2022-07-10T05:56:28;16.82;67.34
71082;SHT31;58740;50.672;18.690;2022-07-10T05:58:56;16.87;67.17
71082;SHT31;58740;50.672;18.690;2022-07-10T06:01:24;16.90;66.92
71082;SHT31;58740;50.672;18.690;2022-07-10T06:03:53;16.91;66.49
71082;SHT31;58740;50.672;18.690;2022-07-10T06:06:21;16.94;66.14
71082;SHT31;58740;50.672;18.690;2022-07-10T06:08:48;16.98;66.58
71082;SHT31;58740;50.672;18.690;2022-07-10T06:11:16;16.99;65.76
71082;SHT31;58740;50.672;18.690;2022-07-10T06:13:44;16.99;66.13
71082;SHT31;58740;50.672;18.690;2022-07-10T06:16:11;17.00;65.94
71082;SHT31;58740;50.672;18.690;2022-07-10T06:18:39;17.05;66.31
71082;SHT31;58740;50.672;18.690;2022-07-10T06:21:07;17.08;65.61
71082;SHT31;58740;50.672;18.690;2022-07-10T06:23:35;17.05;65.37
71082;SHT31;58740;50.672;18.690;2022-07-10T06:26:03;17.03;64.79
71082;SHT31;58740;50.672;18.690;2022-07-10T06:28:33;16.96;64.04
71082;SHT31;58740;50.672;18.690;2022-07-10T06:31:02;16.94;64.21
71082;SHT31;58740;50.672;18.690;2022-07-10T06:33:30;16.99;64.42
71082;SHT31;58740;50.672;18.690;2022-07-10T06:36:03;17.06;64.34
71082;SHT31;58740;50.672;18.690;2022-07-10T06:38:31;17.07;63.66
71082;SHT31;58740;50.672;18.690;2022-07-10T06:40:59;17.10;63.46
71082;SHT31;58740;50.672;18.690;2022-07-10T06:43:27;17.13;63.14
71082;SHT31;58740;50.672;18.690;2022-07-10T06:45:55;17.14;62.81
71082;SHT31;58740;50.672;18.690;2022-07-10T06:48:23;17.13;62.13
71082;SHT31;58740;50.672;18.690;2022-07-10T06:50:53;17.12;61.94
71082;SHT31;58740;50.672;18.690;2022-07-10T06:53:21;17.13;61.66
71082;SHT31;58740;50.672;18.690;2022-07-10T06:55:53;17.25;61.91
71082;SHT31;58740;50.672;18.690;2022-07-10T06:58:21;17.44;62.04
71082;SHT31;58740;50.672;18.690;2022-07-10T07:00:49;17.60;61.20
71082;SHT31;58740;50.672;18.690;2022-07-10T07:03:17;17.66;60.46
71082;SHT31;58740;50.672;18.690;2022-07-10T07:05:44;17.66;60.18
71082;SHT31;58740;50.672;18.690;2022-07-10T07:08:12;17.63;60.50
71082;SHT31;58740;50.672;18.690;2022-07-10T07:10:41;17.62;60.97
71082;SHT31;58740;50.672;18.690;2022-07-10T07:13:08;17.61;60.70
71082;SHT31;58740;50.672;18.690;2022-07-10T07:15:36;17.62;60.54
71082;SHT31;58740;50.672;18.690;2022-07-10T07:18:09;17.66;60.76
71082;SHT31;58740;50.672;18.690;2022-07-10T07:20:40;17.75;61.14
71082;SHT31;58740;50.672;18.690;2022-07-10T07:23:26;17.87;60.10
71082;SHT31;58740;50.672;18.690;2022-07-10T07:25:54;17.91;59.10
71082;SHT31;58740;50.672;18.690;2022-07-10T07:28:23;17.89;58.92
71082;SHT31;58740;50.672;18.690;2022-07-10T07:30:50;17.88;58.83
71082;SHT31;58740;50.672;18.690;2022-07-10T07:33:18;17.85;58.19
71082;SHT31;58740;50.672;18.690;2022-07-10T07:35:46;17.82;58.08
71082;SHT31;58740;50.672;18.690;2022-07-10T07:38:14;17.78;58.58
71082;SHT31;58740;50.672;18.690;2022-07-10T07:40:43;17.74;58.37
71082;SHT31;58740;50.672;18.690;2022-07-10T07:43:11;17.66;57.70
71082;SHT31;58740;50.672;18.690;2022-07-10T07:45:39;17.58;57.29
71082;SHT31;58740;50.672;18.690;2022-07-10T07:48:06;17.51;56.54
71082;SHT31;58740;50.672;18.690;2022-07-10T07:50:35;17.48;56.53
71082;SHT31;58740;50.672;18.690;2022-07-10T07:53:04;17.45;56.37
71082;SHT31;58740;50.672;18.690;2022-07-10T07:55:33;17.45;56.89
71082;SHT31;58740;50.672;18.690;2022-07-10T07:58:01;17.46;57.13
71082;SHT31;58740;50.672;18.690;2022-07-10T08:00:31;17.48;57.11
71082;SHT31;58740;50.672;18.690;2022-07-10T08:02:59;17.51;56.98
71082;SHT31;58740;50.672;18.690;2022-07-10T08:05:28;17.56;55.86
71082;SHT31;58740;50.672;18.690;2022-07-10T08:07:57;17.58;55.88
71082;SHT31;58740;50.672;18.690;2022-07-10T08:10:31;17.57;55.53
71082;SHT31;58740;50.672;18.690;2022-07-10T08:13:00;17.57;55.86
71082;SHT31;58740;50.672;18.690;2022-07-10T08:15:30;17.54;55.62
71082;SHT31;58740;50.672;18.690;2022-07-10T08:17:58;17.53;55.81
71082;SHT31;58740;50.672;18.690;2022-07-10T08:20:26;17.52;55.68
71082;SHT31;58740;50.672;18.690;2022-07-10T08:22:55;17.55;56.21
71082;SHT31;58740;50.672;18.690;2022-07-10T08:25:27;17.61;55.96
71082;SHT31;58740;50.672;18.690;2022-07-10T08:28:01;17.63;55.56
71082;SHT31;58740;50.672;18.690;2022-07-10T08:30:37;17.59;55.13
71082;SHT31;58740;50.672;18.690;2022-07-10T08:33:05;17.55;55.03
71082;SHT31;58740;50.672;18.690;2022-07-10T08:35:33;17.48;54.66
71082;SHT31;58740;50.672;18.690;2022-07-10T08:38:01;17.40;55.05
71082;SHT31;58740;50.672;18.690;2022-07-10T08:40:33;17.35;55.00
71082;SHT31;58740;50.672;18.690;2022-07-10T08:43:04;17.29;55.62
71082;SHT31;58740;50.672;18.690;2022-07-10T08:45:33;17.24;55.98
71082;SHT31;58740;50.672;18.690;2022-07-10T08:48:01;17.19;56.47
71082;SHT31;58740;50.672;18.690;2022-07-10T08:50:33;17.13;56.06
71082;SHT31;58740;50.672;18.690;2022-07-10T08:53:45;17.04;56.45
71082;SHT31;58740;50.672;18.690;2022-07-10T08:56:06;16.98;57.46
71082;SHT31;58740;50.672;18.690;2022-07-10T08:58:34;16.92;57.98
71082;SHT31;58740;50.672;18.690;2022-07-10T09:01:04;16.91;59.15
71082;SHT31;58740;50.672;18.690;2022-07-10T09:03:31;16.93;59.13
71082;SHT31;58740;50.672;18.690;2022-07-10T09:05:59;16.97;59.21
71082;SHT31;58740;50.672;18.690;2022-07-10T09:08:28;17.04;59.66
71082;SHT31;58740;50.672;18.690;2022-07-10T09:11:15;17.15;59.21
71082;SHT31;58740;50.672;18.690;2022-07-10T09:13:51;17.24;59.24
71082;SHT31;58740;50.672;18.690;2022-07-10T09:16:30;17.32;59.46
71082;SHT31;58740;50.672;18.690;2022-07-10T09:19:19;17.38;59.62
71082;SHT31;58740;50.672;18.690;2022-07-10T09:22:06;17.43;58.73
71082;SHT31;58740;50.672;18.690;2022-07-10T09:24:36;17.44;58.46
71082;SHT31;58740;50.672;18.690;2022-07-10T09:27:07;17.45;58.79
71082;SHT31;58740;50.672;18.690;2022-07-10T09:32:17;17.49;57.74
71082;SHT31;58740;50.672;18.690;2022-07-10T09:34:49;17.48;57.69
71082;SHT31;58740;50.672;18.690;2022-07-10T09:37:41;17.47;57.98
71082;SHT31;58740;50.672;18.690;2022-07-10T09:40:10;17.47;57.14
71082;SHT31;58740;50.672;18.690;2022-07-10T09:42:39;17.46;56.76
71082;SHT31;58740;50.672;18.690;2022-07-10T09:45:15;17.41;56.36
71082;SHT31;58740;50.672;18.690;2022-07-10T09:50:25;17.34;56.10
71082;SHT31;58740;50.672;18.690;2022-07-10T09:52:59;17.33;55.44
71082;SHT31;58740;50.672;18.690;2022-07-10T09:55:34;17.32;55.22
71082;SHT31;58740;50.672;18.690;2022-07-10T09:58:09;17.31;55.38
71082;SHT31;58740;50.672;18.690;2022-07-10T10:00:38;17.27;54.95
71082;SHT31;58740;50.672;18.690;2022-07-10T10:03:13;17.25;55.35
71082;SHT31;58740;50.672;18.690;2022-07-10T10:05:43;17.23;55.27
71082;SHT31;58740;50.672;18.690;2022-07-10T10:08:26;17.21;54.82
71082;SHT31;58740;50.672;18.690;2022-07-10T10:10:57;17.19;54.95
71082;SHT31;58740;50.672;18.690;2022-07-10T10:13:27;17.16;55.49
71082;SHT31;58740;50.672;18.690;2022-07-10T10:15:56;17.15;56.26
71082;SHT31;58740;50.672;18.690;2022-07-10T10:18:25;17.12;56.17
71082;SHT31;58740;50.672;18.690;2022-07-10T10:20:54;17.05;57.03
71082;SHT31;58740;50.672;18.690;2022-07-10T10:23:24;16.94;57.53
71082;SHT31;58740;50.672;18.690;2022-07-10T10:25:56;16.85;58.63
71082;SHT31;58740;50.672;18.690;2022-07-10T10:28:25;16.78;58.82
71082;SHT31;58740;50.672;18.690;2022-07-10T10:30:57;16.67;59.38
71082;SHT31;58740;50.672;18.690;2022-07-10T10:35:58;16.58;60.94
71082;SHT31;58740;50.672;18.690;2022-07-10T10:41:22;16.53;60.25
71082;SHT31;58740;50.672;18.690;2022-07-10T10:46:35;16.47;60.69
71082;SHT31;58740;50.672;18.690;2022-07-10T10:49:49;16.49;61.10
71082;SHT31;58740;50.672;18.690;2022-07-10T10:52:27;16.53;60.76
71082;SHT31;58740;50.672;18.690;2022-07-10T11:00:06;16.77;61.04
71082;SHT31;58740;50.672;18.690;2022-07-10T11:02:36;16.86;60.44
71082;SHT31;58740;50.672;18.690;2022-07-10T11:10:33;17.06;58.33
71082;SHT31;58740;50.672;18.690;2022-07-10T11:13:16;17.12;56.55
71082;SHT31;58740;50.672;18.690;2022-07-10T11:15:49;17.13;56.32
71082;SHT31;58740;50.672;18.690;2022-07-10T11:18:20;17.21;56.28
71082;SHT31;58740;50.672;18.690;2022-07-10T11:20:58;17.28;56.31
71082;SHT31;58740;50.672;18.690;2022-07-10T11:23:48;17.33;55.11
71082;SHT31;58740;50.672;18.690;2022-07-10T11:26:30;17.36;54.54
71082;SHT31;58740;50.672;18.690;2022-07-10T11:29:08;17.38;54.21
71082;SHT31;58740;50.672;18.690;2022-07-10T11:31:36;17.39;54.32
71082;SHT31;58740;50.672;18.690;2022-07-10T11:34:14;17.42;55.04
71082;SHT31;58740;50.672;18.690;2022-07-10T11:36:41;17.46;55.63
71082;SHT31;58740;50.672;18.690;2022-07-10T11:39:09;17.48;55.39
71082;SHT31;58740;50.672;18.690;2022-07-10T11:41:46;17.48;54.11
71082;SHT31;58740;50.672;18.690;2022-07-10T11:44:14;17.48;53.26
71082;SHT31;58740;50.672;18.690;2022-07-10T11:46:44;17.51;53.35
71082;SHT31;58740;50.672;18.690;2022-07-10T11:49:16;17.57;53.43
71082;SHT31;58740;50.672;18.690;2022-07-10T11:51:45;17.62;53.31
71082;SHT31;58740;50.672;18.690;2022-07-10T11:54:13;17.66;53.08
71082;SHT31;58740;50.672;18.690;2022-07-10T11:56:46;17.64;53.23
71082;SHT31;58740;50.672;18.690;2022-07-10T11:59:16;17.59;53.32
71082;SHT31;58740;50.672;18.690;2022-07-10T12:01:46;17.54;53.90
71082;SHT31;58740;50.672;18.690;2022-07-10T12:04:17;17.49;53.86
71082;SHT31;58740;50.672;18.690;2022-07-10T12:06:50;17.46;53.98
71082;SHT31;58740;50.672;18.690;2022-07-10T12:09:20;17.42;53.65
71082;SHT31;58740;50.672;18.690;2022-07-10T12:12:03;17.34;54.42
71082;SHT31;58740;50.672;18.690;2022-07-10T12:14:33;17.22;56.17
71082;SHT31;58740;50.672;18.690;2022-07-10T12:17:03;17.11;57.72
71082;SHT31;58740;50.672;18.690;2022-07-10T12:19:39;17.04;58.97
71082;SHT31;58740;50.672;18.690;2022-07-10T12:22:07;17.00;59.99
71082;SHT31;58740;50.672;18.690;2022-07-10T12:24:35;17.01;59.76
71082;SHT31;58740;50.672;18.690;2022-07-10T12:27:04;17.04;59.94
71082;SHT31;58740;50.672;18.690;2022-07-10T12:29:32;17.09;59.63
71082;SHT31;58740;50.672;18.690;2022-07-10T12:32:00;17.15;59.75
71082;SHT31;58740;50.672;18.690;2022-07-10T12:34:32;17.25;59.18
71082;SHT31;58740;50.672;18.690;2022-07-10T12:37:07;17.37;58.70
71082;SHT31;58740;50.672;18.690;2022-07-10T12:39:38;17.44;58.47
71082;SHT31;58740;50.672;18.690;2022-07-10T12:42:30;17.51;58.08
71082;SHT31;58740;50.672;18.690;2022-07-10T12:45:14;17.55;56.07
71082;SHT31;58740;50.672;18.690;2022-07-10T12:47:43;17.57;55.06
71082;SHT31;58740;50.672;18.690;2022-07-10T12:50:13;17.60;54.56
71082;SHT31;58740;50.672;18.690;2022-07-10T12:52:45;17.62;53.85
71082;SHT31;58740;50.672;18.690;2022-07-10T12:55:14;17.64;53.30
71082;SHT31;58740;50.672;18.690;2022-07-10T13:00:32;17.66;53.94
71082;SHT31;58740;50.672;18.690;2022-07-10T13:03:03;17.65;54.15
71082;SHT31;58740;50.672;18.690;2022-07-10T13:05:37;17.63;54.18
71082;SHT31;58740;50.672;18.690;2022-07-10T13:08:11;17.59;54.86
71082;SHT31;58740;50.672;18.690;2022-07-10T13:13:27;17.52;55.58
71082;SHT31;58740;50.672;18.690;2022-07-10T13:15:58;17.52;55.52
71082;SHT31;58740;50.672;18.690;2022-07-10T13:18:27;17.50;55.34
71082;SHT31;58740;50.672;18.690;2022-07-10T13:20:55;17.49;55.17
71082;SHT31;58740;50.672;18.690;2022-07-10T13:23:28;17.51;55.15
71082;SHT31;58740;50.672;18.690;2022-07-10T13:25:57;17.52;54.86
71082;SHT31;58740;50.672;18.690;2022-07-10T13:28:26;17.54;54.95
71082;SHT31;58740;50.672;18.690;2022-07-10T13:30:54;17.55;54.70
71082;SHT31;58740;50.672;18.690;2022-07-10T13:33:22;17.57;54.17
71082;SHT31;58740;50.672;18.690;2022-07-10T13:35:52;17.59;54.74
71082;SHT31;58740;50.672;18.690;2022-07-10T13:38:21;17.63;54.84
71082;SHT31;58740;50.672;18.690;2022-07-10T13:40:50;17.67;54.16
71082;SHT31;58740;50.672;18.690;2022-07-10T13:43:18;17.73;53.94
71082;SHT31;58740;50.672;18.690;2022-07-10T13:45:48;17.78;53.95
71082;SHT31;58740;50.672;18.690;2022-07-10T13:48:16;17.86;53.38
71082;SHT31;58740;50.672;18.690;2022-07-10T13:50:44;17.94;52.96
71082;SHT31;58740;50.672;18.690;2022-07-10T13:53:16;18.02;53.27
71082;SHT31;58740;50.672;18.690;2022-07-10T13:55:44;18.11;52.98
71082;SHT31;58740;50.672;18.690;2022-07-10T13:58:13;18.16;52.81
71082;SHT31;58740;50.672;18.690;2022-07-10T14:00:42;18.19;52.69
71082;SHT31;58740;50.672;18.690;2022-07-10T14:03:11;18.18;52.08
71082;SHT31;58740;50.672;18.690;2022-07-10T14:05:38;18.14;52.25
71082;SHT31;58740;50.672;18.690;2022-07-10T14:08:06;18.11;52.50
71082;SHT31;58740;50.672;18.690;2022-07-10T14:10:34;18.08;52.15
71082;SHT31;58740;50.672;18.690;2022-07-10T14:13:01;18.01;52.89
71082;SHT31;58740;50.672;18.690;2022-07-10T14:15:37;17.91;53.72
71082;SHT31;58740;50.672;18.690;2022-07-10T14:18:05;17.72;54.33
71082;SHT31;58740;50.672;18.690;2022-07-10T14:20:33;17.56;55.30
71082;SHT31;58740;50.672;18.690;2022-07-10T14:23:20;17.41;57.49
71082;SHT31;58740;50.672;18.690;2022-07-10T14:25:48;17.28;57.64
71082;SHT31;58740;50.672;18.690;2022-07-10T14:28:16;17.19;58.61
71082;SHT31;58740;50.672;18.690;2022-07-10T14:30:44;17.12;59.37
71082;SHT31;58740;50.672;18.690;2022-07-10T14:33:17;17.04;60.17
71082;SHT31;58740;50.672;18.690;2022-07-10T14:35:45;16.95;60.76
71082;SHT31;58740;50.672;18.690;2022-07-10T14:38:13;16.83;61.40
71082;SHT31;58740;50.672;18.690;2022-07-10T14:40:41;16.73;61.63
71082;SHT31;58740;50.672;18.690;2022-07-10T14:43:08;16.67;62.24
71082;SHT31;58740;50.672;18.690;2022-07-10T14:45:36;16.63;62.49
71082;SHT31;58740;50.672;18.690;2022-07-10T14:48:24;16.66;63.05
71082;SHT31;58740;50.672;18.690;2022-07-10T14:50:52;16.69;63.52
71082;SHT31;58740;50.672;18.690;2022-07-10T14:53:20;16.77;63.83
71082;SHT31;58740;50.672;18.690;2022-07-10T14:55:48;16.82;63.69
71082;SHT31;58740;50.672;18.690;2022-07-10T14:58:16;16.90;64.37
71082;SHT31;58740;50.672;18.690;2022-07-10T15:00:44;16.96;64.46
71082;SHT31;58740;50.672;18.690;2022-07-10T15:03:11;17.03;64.52
71082;SHT31;58740;50.672;18.690;2022-07-10T15:05:39;17.12;64.54
71082;SHT31;58740;50.672;18.690;2022-07-10T15:08:07;17.23;64.40
71082;SHT31;58740;50.672;18.690;2022-07-10T15:10:34;17.35;63.18
71082;SHT31;58740;50.672;18.690;2022-07-10T15:13:02;17.42;61.60
71082;SHT31;58740;50.672;18.690;2022-07-10T15:15:32;17.47;61.47
71082;SHT31;58740;50.672;18.690;2022-07-10T15:18:01;17.52;60.41
71082;SHT31;58740;50.672;18.690;2022-07-10T15:20:28;17.56;60.24
71082;SHT31;58740;50.672;18.690;2022-07-10T15:22:57;17.56;60.12
71082;SHT31;58740;50.672;18.690;2022-07-10T15:25:25;17.56;59.96
71082;SHT31;58740;50.672;18.690;2022-07-10T15:27:53;17.55;59.63
71082;SHT31;58740;50.672;18.690;2022-07-10T15:30:21;17.55;59.66
71082;SHT31;58740;50.672;18.690;2022-07-10T15:32:50;17.54;59.64
71082;SHT31;58740;50.672;18.690;2022-07-10T15:35:21;17.50;59.37
71082;SHT31;58740;50.672;18.690;2022-07-10T15:37:51;17.45;59.45
71082;SHT31;58740;50.672;18.690;2022-07-10T15:40:26;17.46;59.94
71082;SHT31;58740;50.672;18.690;2022-07-10T15:42:59;17.45;59.94
71082;SHT31;58740;50.672;18.690;2022-07-10T15:45:27;17.45;59.99
71082;SHT31;58740;50.672;18.690;2022-07-10T15:47:55;17.44;60.17
71082;SHT31;58740;50.672;18.690;2022-07-10T15:50:23;17.46;60.50
71082;SHT31;58740;50.672;18.690;2022-07-10T15:52:50;17.48;60.33
71082;SHT31;58740;50.672;18.690;2022-07-10T15:55:18;17.48;60.09
71082;SHT31;58740;50.672;18.690;2022-07-10T15:57:46;17.47;59.84
71082;SHT31;58740;50.672;18.690;2022-07-10T16:00:13;17.45;59.20
71082;SHT31;58740;50.672;18.690;2022-07-10T16:02:41;17.43;58.74